Time;durP1;ratioP1;P1;durP2;ratioP2;P2;SDS_P1;SDS_P2;PMS_P1;PMS_P2;Temp;Humidity;BMP_temperature;BMP_pressure;BME280_temperature;BME280_humidity;BME280_pressure;Samples;Min_cycle;Max_cycle;Signal;HPM_P1;HPM_P2
2022/01/18 00:00:02;;;;;;;;;;;8.00;54.30;;;;;;5034232;28;20040;-53
2022/01/18 00:02:28;;;;;;;3.67;2.10;;;8.10;53.80;;;;;;5033796;28;19909;-54
2022/01/18 00:04:54;;;;;;;3.47;2.00;;;8.10;54.10;;;;;;5033541;28;20068;-65
2022/01/18 00:07:19;;;;;;;3.22;1.90;;;8.20;53.60;;;;;;5033490;28;20104;-55
2022/01/18 00:09:45;;;;;;;3.47;1.48;;;8.10;51.50;;;;;;5034137;28;20080;-54
2022/01/18 00:15:15;;;;;;;2.67;1.30;;;8.00;51.90;;;;;;5033756;28;20136;-62
2022/01/18 00:17:42;;;;;;;3.13;1.30;;;8.00;50.90;;;;;;5033219;28;20108;-49
2022/01/18 00:20:16;;;;;;;2.05;1.02;;;7.90;50.10;;;;;;5033604;28;20112;-55
2022/01/18 00:22:42;;;;;;;3.15;1.73;;;7.90;49.50;;;;;;5033348;28;20040;-60
2022/01/18 00:25:08;;;;;;;3.80;1.40;;;7.90;50.30;;;;;;5033369;28;20046;-56
2022/01/18 00:27:33;;;;;;;2.78;1.30;;;7.90;49.10;;;;;;5033847;28;20144;-58
2022/01/18 00:30:18;;;;;;;2.20;1.25;;;7.80;48.90;;;;;;5033484;28;20052;-53
2022/01/18 00:35:16;;;;;;;1.73;1.02;;;7.80;48.70;;;;;;5033559;28;20387;-58
2022/01/18 00:37:51;;;;;;;2.45;0.90;;;7.70;48.60;;;;;;5033073;28;20517;-59
2022/01/18 00:40:17;;;;;;;2.63;1.10;;;7.80;48.80;;;;;;5033447;28;20472;-61
2022/01/18 00:42:42;;;;;;;1.40;0.80;;;7.70;48.20;;;;;;5033384;28;20089;-57
2022/01/18 00:45:09;;;;;;;2.20;1.10;;;7.80;49.00;;;;;;5035038;28;20034;-57
2022/01/18 00:47:34;;;;;;;2.30;1.42;;;7.80;48.60;;;;;;5037330;28;20037;-55
2022/01/18 00:50:02;;;;;;;6.40;3.28;;;7.80;48.80;;;;;;5037278;28;20069;-63
2022/01/18 00:52:31;;;;;;;6.97;3.75;;;7.80;48.10;;;;;;5037080;28;20122;-57
2022/01/18 00:54:59;;;;;;;10.50;5.20;;;7.70;48.40;;;;;;5037542;28;20033;-53
2022/01/18 00:57:24;;;;;;;6.95;4.07;;;7.60;49.30;;;;;;5036964;28;20025;-50
2022/01/18 00:59:50;;;;;;;3.42;1.38;;;7.50;49.90;;;;;;5037182;28;20105;-52
2022/01/18 01:02:17;;;;;;;2.20;1.00;;;7.40;50.30;;;;;;5037220;28;20037;-61
2022/01/18 01:04:48;;;;;;;2.17;0.90;;;7.20;51.30;;;;;;5036891;28;20068;-55
2022/01/18 01:07:15;;;;;;;1.08;0.68;;;7.10;51.40;;;;;;5036782;28;20476;-49
2022/01/18 01:09:41;;;;;;;2.17;0.60;;;7.00;52.00;;;;;;5036862;28;20013;-50
2022/01/18 01:12:07;;;;;;;1.10;0.60;;;6.90;51.60;;;;;;5036746;28;20060;-49
2022/01/18 01:14:34;;;;;;;1.05;0.45;;;6.90;51.70;;;;;;5036611;28;20540;-62
2022/01/18 01:17:12;;;;;;;1.38;0.80;;;7.10;51.90;;;;;;5036688;28;20022;-57
2022/01/18 01:46:25;;;;;;;1.17;0.70;;;6.50;50.50;;;;;;5036427;28;20029;-55
2022/01/18 01:48:54;;;;;;;1.40;0.80;;;6.50;50.10;;;;;;5036193;28;20399;-55
2022/01/18 01:51:21;;;;;;;2.55;0.70;;;6.50;50.90;;;;;;5036290;28;20112;-58
2022/01/18 01:53:47;;;;;;;0.98;0.60;;;6.60;51.00;;;;;;5036369;28;20107;-62
2022/01/18 01:56:13;;;;;;;2.05;0.90;;;6.60;50.30;;;;;;5035836;28;20491;-48
2022/01/18 01:58:39;;;;;;;2.13;1.10;;;6.60;50.50;;;;;;5035895;28;20026;-59
2022/01/18 02:01:06;;;;;;;2.17;1.08;;;6.60;50.50;;;;;;5036417;28;20030;-61
2022/01/18 02:03:33;;;;;;;3.08;1.60;;;6.50;50.60;;;;;;5035603;28;20027;-57
2022/01/18 02:05:58;;;;;;;2.15;1.13;;;6.50;51.10;;;;;;5035829;28;20033;-62
2022/01/18 02:08:24;;;;;;;3.08;1.52;;;6.40;51.70;;;;;;5035891;28;20483;-63
2022/01/18 02:10:50;;;;;;;1.98;1.30;;;6.30;52.10;;;;;;5035763;28;20079;-55
2022/01/18 02:13:16;;;;;;;42.63;23.05;;;6.40;52.20;;;;;;5035750;28;20029;-60
2022/01/18 02:16:10;;;;;;;50.88;28.13;;;6.00;57.60;;;;;;5035358;28;20027;-49
2022/01/18 02:24:03;;;;;;;52.03;27.83;;;4.70;66.60;;;;;;5035652;28;20483;-58
2022/01/18 02:26:28;;;;;;;39.40;22.30;;;4.60;69.10;;;;;;5035481;28;20053;-66
2022/01/18 02:28:57;;;;;;;42.15;21.17;;;4.60;67.90;;;;;;5035645;28;20072;-54
2022/01/18 02:31:23;;;;;;;30.98;17.17;;;4.90;63.60;;;;;;5035242;28;20431;-60
2022/01/18 02:33:49;;;;;;;28.58;15.52;;;4.90;63.10;;;;;;5035160;28;20029;-55
2022/01/18 02:36:14;;;;;;;29.13;15.48;;;5.10;62.60;;;;;;5035764;28;20072;-56
2022/01/18 02:38:40;;;;;;;23.45;13.27;;;5.20;63.90;;;;;;5035025;28;20534;-56
2022/01/18 02:41:07;;;;;;;29.63;14.20;;;5.10;64.30;;;;;;5035293;28;20085;-58
2022/01/18 02:43:50;;;;;;;27.13;14.18;;;5.20;63.20;;;;;;5035232;28;20040;-58
2022/01/18 02:46:16;;;;;;;37.80;19.75;;;5.30;62.00;;;;;;5034997;28;20487;-57
2022/01/18 02:48:42;;;;;;;41.83;19.38;;;5.40;62.10;;;;;;5034862;28;20071;-59
2022/01/18 02:51:09;;;;;;;35.88;18.65;;;5.50;63.20;;;;;;5035008;28;20060;-51
2022/01/18 02:53:52;;;;;;;33.03;16.20;;;5.10;67.20;;;;;;5035423;28;20032;-58
2022/01/18 02:56:18;;;;;;;33.13;17.13;;;4.70;69.90;;;;;;5034877;28;20030;-58
2022/01/18 02:58:43;;;;;;;33.13;15.73;;;4.80;67.20;;;;;;5034873;28;20108;-61
2022/01/18 03:03:54;;;;;;;27.67;14.40;;;4.90;67.10;;;;;;5034712;28;20024;-50
2022/01/18 03:06:19;;;;;;;42.40;20.88;;;5.10;65.20;;;;;;5034755;28;20025;-53
2022/01/18 03:08:45;;;;;;;34.17;17.38;;;5.20;64.60;;;;;;5034045;28;20467;-60
2022/01/18 03:11:11;;;;;;;32.35;18.20;;;5.20;64.60;;;;;;5034859;28;20033;-54
2022/01/18 03:13:36;;;;;;;35.83;20.10;;;5.30;64.10;;;;;;5034729;28;20029;-49
2022/01/18 03:16:02;;;;;;;35.58;19.48;;;5.30;63.50;;;;;;5034308;28;20155;-54
2022/01/18 03:18:28;;;;;;;33.55;19.63;;;5.30;63.50;;;;;;5034518;28;20025;-57
2022/01/18 03:20:55;;;;;;;62.78;29.77;;;5.40;63.50;;;;;;5033369;28;20029;-49
2022/01/18 03:23:22;;;;;;;33.85;15.57;;;5.30;64.60;;;;;;5033956;28;20029;-57
2022/01/18 03:25:59;;;;;;;25.15;11.85;;;4.90;70.20;;;;;;5034183;28;20029;-46
2022/01/18 03:28:26;;;;;;;15.15;8.23;;;4.00;88.70;;;;;;5034567;28;20510;-69
2022/01/18 03:30:58;;;;;;;15.00;7.93;;;3.30;95.00;;;;;;5034319;28;20065;-57
2022/01/18 03:33:26;;;;;;;22.98;8.73;;;3.10;98.20;;;;;;5034265;28;20029;-62
2022/01/18 03:35:57;;;;;;;23.60;10.93;;;3.00;98.40;;;;;;5033967;28;20045;-59
2022/01/18 03:38:29;;;;;;;26.77;12.27;;;3.10;97.70;;;;;;5034317;28;20032;-67
2022/01/18 03:41:01;;;;;;;29.45;11.60;;;3.30;96.90;;;;;;5034185;28;20034;-57
2022/01/18 03:43:30;;;;;;;22.10;11.20;;;3.40;96.70;;;;;;5034308;28;20030;-50
2022/01/18 03:46:01;;;;;;;20.85;10.10;;;3.10;99.10;;;;;;5034137;28;20025;-53
2022/01/18 03:48:38;;;;;;;15.25;8.43;;;2.90;99.90;;;;;;5034210;28;20041;-53
2022/01/18 03:51:07;;;;;;;13.38;7.22;;;2.70;99.90;;;;;;5033837;28;20495;-61
2022/01/18 03:53:33;;;;;;;16.70;8.27;;;2.50;99.90;;;;;;5033853;28;20023;-64
2022/01/18 03:55:59;;;;;;;26.75;11.27;;;2.50;99.90;;;;;;5034138;28;20104;-56
2022/01/18 03:58:25;;;;;;;210.23;67.93;;;2.40;99.90;;;;;;5033930;28;20083;-51
2022/01/18 04:00:50;;;;;;;133.90;51.13;;;2.50;99.90;;;;;;5033728;28;20033;-54
2022/01/18 04:03:17;;;;;;;100.57;43.88;;;2.60;99.90;;;;;;5033859;28;20053;-63
2022/01/18 04:05:43;;;;;;;93.43;38.15;;;2.90;99.90;;;;;;5033612;28;20444;-60
2022/01/18 04:08:09;;;;;;;77.35;34.13;;;3.10;99.90;;;;;;5033638;28;20065;-43
2022/01/18 04:10:35;;;;;;;58.88;29.05;;;3.30;99.90;;;;;;5033585;28;20032;-59
2022/01/18 04:13:01;;;;;;;149.18;60.10;;;3.50;98.30;;;;;;5033608;28;20029;-51
2022/01/18 04:15:28;;;;;;;103.28;43.33;;;3.40;99.90;;;;;;5033430;28;20028;-63
2022/01/18 04:28:34;;;;;;;138.43;57.92;;;2.50;99.90;;;;;;5037616;28;20048;-58
2022/01/18 04:31:00;;;;;;;139.98;58.75;;;2.70;99.90;;;;;;5037679;28;20032;-65
2022/01/18 04:33:26;;;;;;;110.95;47.97;;;2.80;99.90;;;;;;5037563;28;20049;-58
2022/01/18 04:35:51;;;;;;;106.20;46.33;;;3.00;99.90;;;;;;5037548;28;20044;-53
2022/01/18 04:38:17;;;;;;;154.27;59.53;;;3.20;99.90;;;;;;5037465;28;20108;-61
2022/01/18 04:40:45;;;;;;;109.93;45.45;;;3.30;99.20;;;;;;5037227;28;20052;-54
2022/01/18 04:48:33;;;;;;;107.30;46.40;;;3.40;98.10;;;;;;5037645;28;20116;-63
2022/01/18 04:51:08;;;;;;;98.15;41.95;;;3.50;98.30;;;;;;5037208;28;20026;-58
2022/01/18 04:53:40;;;;;;;95.45;40.60;;;3.50;97.90;;;;;;5037142;28;20100;-57
2022/01/18 04:56:11;;;;;;;93.35;38.55;;;3.50;97.40;;;;;;5037238;28;20030;-60
2022/01/18 04:58:37;;;;;;;69.63;33.63;;;3.60;96.10;;;;;;5036777;28;20036;-60
2022/01/18 05:01:06;;;;;;;62.67;29.60;;;3.40;95.40;;;;;;5036999;28;20031;-53
2022/01/18 05:03:33;;;;;;;55.45;26.45;;;3.40;95.40;;;;;;5037280;28;20041;-54
2022/01/18 05:06:03;;;;;;;47.78;24.10;;;3.50;95.30;;;;;;5036967;28;20048;-54
2022/01/18 05:08:29;;;;;;;46.35;21.48;;;3.40;95.40;;;;;;5037212;28;20044;-53
2022/01/18 05:10:57;;;;;;;38.13;19.85;;;3.40;95.00;;;;;;5036925;28;20025;-59
2022/01/18 05:21:33;;;;;;;57.67;28.77;;;3.30;96.10;;;;;;5036931;28;20083;-52
2022/01/18 05:24:00;;;;;;;69.13;34.67;;;3.40;96.00;;;;;;5036403;28;20133;-56
2022/01/18 05:26:27;;;;;;;86.68;41.25;;;3.20;98.20;;;;;;5036731;28;20025;-51
2022/01/18 05:28:53;;;;;;;87.05;44.72;;;3.10;99.90;;;;;;5036462;28;20033;-60
2022/01/18 05:31:19;;;;;;;92.47;47.95;;;3.00;99.90;;;;;;5035966;28;20028;-48
2022/01/18 05:33:47;;;;;;;71.60;39.83;;;3.10;99.90;;;;;;5036499;28;20079;-46
2022/01/18 05:36:14;;;;;;;65.10;36.28;;;3.00;99.90;;;;;;5036406;28;20026;-53
2022/01/18 05:38:40;;;;;;;61.05;32.92;;;3.00;99.90;;;;;;5036320;28;20060;-49
2022/01/18 05:41:07;;;;;;;61.85;32.00;;;3.00;99.60;;;;;;5036823;28;20021;-42
2022/01/18 05:43:33;;;;;;;52.45;28.73;;;3.10;98.50;;;;;;5036209;28;20021;-54
2022/01/18 05:45:59;;;;;;;57.00;30.08;;;3.20;97.60;;;;;;5036021;28;20021;-51
2022/01/18 05:48:25;;;;;;;51.85;27.65;;;3.20;97.60;;;;;;5036238;28;20036;-52
2022/01/18 05:50:54;;;;;;;61.03;29.63;;;3.20;97.40;;;;;;5036113;28;20026;-53
2022/01/18 05:53:19;;;;;;;56.33;28.20;;;3.20;96.60;;;;;;5036274;28;20491;-48
2022/01/18 05:55:45;;;;;;;82.65;38.95;;;3.20;96.70;;;;;;5036308;28;20104;-56
2022/01/18 05:58:11;;;;;;;86.43;40.58;;;3.20;97.00;;;;;;5035999;28;20026;-61
2022/01/18 06:00:37;;;;;;;97.68;47.53;;;3.00;98.70;;;;;;5052049;28;20036;-55
2022/01/18 06:03:14;;;;;;;75.53;38.28;;;2.90;99.90;;;;;;5041782;28;20030;-53
2022/01/18 06:08:24;;;;;;;135.20;55.42;;;2.80;99.90;;;;;;5035090;28;20048;-51
2022/01/18 06:10:50;;;;;;;119.45;52.30;;;2.80;99.90;;;;;;5037041;28;20034;-64
2022/01/18 06:13:16;;;;;;;91.70;43.45;;;2.70;99.90;;;;;;5043083;28;20037;-49
2022/01/18 06:15:41;;;;;;;114.72;51.00;;;2.60;99.90;;;;;;5037965;28;20041;-65
2022/01/18 06:18:07;;;;;;;104.65;45.30;;;2.70;99.90;;;;;;5035729;28;20073;-54
2022/01/18 06:20:34;;;;;;;133.18;57.28;;;2.70;99.90;;;;;;5032837;28;20025;-55
2022/01/18 06:23:00;;;;;;;94.85;43.25;;;2.80;99.90;;;;;;5045562;28;20461;-46
2022/01/18 06:25:26;;;;;;;83.53;39.97;;;2.70;99.90;;;;;;5053260;28;20419;-53
2022/01/18 06:27:53;;;;;;;71.90;35.10;;;2.80;99.90;;;;;;5050409;28;20025;-42
2022/01/18 06:30:20;;;;;;;81.10;38.08;;;2.80;99.90;;;;;;5039288;28;20033;-59
2022/01/18 06:32:47;;;;;;;84.18;38.83;;;2.90;99.90;;;;;;5044821;28;20099;-48
2022/01/18 06:35:14;;;;;;;74.57;36.50;;;2.90;99.90;;;;;;5043316;28;20033;-51
2022/01/18 06:37:40;;;;;;;91.70;40.20;;;3.00;99.30;;;;;;5035123;28;20033;-55
2022/01/18 06:40:08;;;;;;;74.85;36.58;;;3.00;99.00;;;;;;5042363;28;20056;-58
2022/01/18 06:42:34;;;;;;;76.55;38.45;;;2.90;98.90;;;;;;5042569;28;20030;-64
2022/01/18 06:44:59;;;;;;;72.47;36.85;;;3.00;98.30;;;;;;5037243;28;20041;-48
2022/01/18 06:47:25;;;;;;;64.90;32.10;;;3.00;97.90;;;;;;5042147;28;20044;-60
2022/01/18 06:49:51;;;;;;;84.97;42.00;;;3.00;97.00;;;;;;5042213;28;20025;-51
2022/01/18 06:52:22;;;;;;;86.30;44.22;;;3.00;95.60;;;;;;5045011;28;20045;-58
2022/01/18 06:54:50;;;;;;;95.75;46.15;;;3.00;96.60;;;;;;5039962;28;20440;-67
2022/01/18 06:57:16;;;;;;;74.78;37.92;;;3.00;97.60;;;;;;5042267;28;20029;-46
2022/01/18 06:59:41;;;;;;;113.95;53.72;;;3.00;98.10;;;;;;5043927;28;20509;-54
2022/01/18 07:02:07;;;;;;;97.93;46.03;;;3.00;97.70;;;;;;5045087;28;20021;-57
2022/01/18 07:04:33;;;;;;;88.50;45.10;;;3.00;98.50;;;;;;5039177;28;20030;-58
2022/01/18 07:07:00;;;;;;;84.75;44.75;;;2.90;98.00;;;;;;5033025;28;20052;-63
2022/01/18 07:09:26;;;;;;;109.28;55.97;;;2.90;98.90;;;;;;5032564;28;20025;-46
2022/01/18 07:11:54;;;;;;;138.48;65.35;;;3.00;98.90;;;;;;5035037;28;20029;-61
2022/01/18 07:14:20;;;;;;;144.55;73.15;;;3.10;99.00;;;;;;5043986;28;20040;-57
2022/01/18 07:16:46;;;;;;;142.23;69.35;;;3.10;98.10;;;;;;5041409;28;20060;-47
2022/01/18 07:19:14;;;;;;;163.45;80.25;;;3.20;98.10;;;;;;5040047;28;20059;-62
2022/01/18 07:21:40;;;;;;;233.27;111.07;;;3.20;98.00;;;;;;5035573;28;20031;-64
2022/01/18 07:24:35;;;;;;;269.55;133.80;;;3.40;96.10;;;;;;5035392;28;20128;-66
2022/01/18 07:27:02;;;;;;;291.33;144.20;;;3.40;94.90;;;;;;5038328;28;20029;-55
2022/01/18 07:29:27;;;;;;;326.90;158.45;;;3.40;95.40;;;;;;5056621;28;20031;-58
2022/01/18 07:31:53;;;;;;;261.48;131.90;;;3.30;96.80;;;;;;5057014;28;20021;-56
2022/01/18 07:34:20;;;;;;;265.55;133.68;;;3.20;97.20;;;;;;5052329;28;20052;-60
2022/01/18 07:36:46;;;;;;;321.77;156.82;;;3.20;97.10;;;;;;5049413;28;20053;-51
2022/01/18 07:39:12;;;;;;;272.58;136.38;;;3.30;96.70;;;;;;5051984;28;20025;-63
2022/01/18 07:41:38;;;;;;;243.43;124.95;;;3.20;97.20;;;;;;5039928;28;20057;-62
2022/01/18 07:44:04;;;;;;;223.63;110.35;;;3.30;97.10;;;;;;5062086;28;20522;-64
2022/01/18 07:46:29;;;;;;;195.93;95.90;;;3.80;95.70;;;;;;5070360;28;20020;-55
2022/01/18 07:48:55;;;;;;;178.02;90.55;;;4.80;90.40;;;;;;5041437;28;20025;-57
2022/01/18 07:51:21;;;;;;;171.02;86.78;;;5.60;82.00;;;;;;5055600;28;20104;-53
2022/01/18 07:53:47;;;;;;;164.70;81.70;;;7.40;72.20;;;;;;5058485;28;20431;-58
2022/01/18 07:56:13;;;;;;;214.98;108.07;;;9.70;60.10;;;;;;5046736;28;20468;-57
2022/01/18 07:58:39;;;;;;;235.68;121.60;;;11.30;52.10;;;;;;5041673;28;20029;-52
2022/01/18 08:01:05;;;;;;;241.43;129.05;;;12.30;47.80;;;;;;5038695;28;20036;-59
2022/01/18 08:03:31;;;;;;;190.75;100.05;;;12.10;47.20;;;;;;5041110;28;20025;-50
2022/01/18 08:05:57;;;;;;;167.35;88.30;;;12.40;44.80;;;;;;5031122;28;20464;-59
2022/01/18 08:08:23;;;;;;;156.18;79.40;;;13.30;44.00;;;;;;5035816;28;20029;-67
2022/01/18 08:10:49;;;;;;;170.63;92.50;;;13.60;42.10;;;;;;5055304;28;20028;-65
2022/01/18 08:13:14;;;;;;;159.05;86.43;;;13.60;40.50;;;;;;5047470;28;20332;-53
2022/01/18 08:15:42;;;;;;;206.48;113.35;;;14.00;41.20;;;;;;5037012;28;20021;-60
2022/01/18 08:18:14;;;;;;;203.07;115.47;;;14.70;39.70;;;;;;5033417;28;20029;-58
2022/01/18 08:20:40;;;;;;;197.50;105.72;;;15.40;38.50;;;;;;5040910;28;20020;-55
2022/01/18 08:23:06;;;;;;;169.13;96.78;;;15.60;37.20;;;;;;5041122;28;20078;-60
2022/01/18 08:25:34;;;;;;;185.77;102.53;;;15.20;36.90;;;;;;5050560;28;20040;-62
2022/01/18 08:28:00;;;;;;;143.52;80.53;;;15.40;35.70;;;;;;5047257;28;20026;-57
2022/01/18 08:30:26;;;;;;;119.60;63.75;;;15.10;36.30;;;;;;5043539;28;20131;-60
2022/01/18 08:32:54;;;;;;;113.22;56.03;;;14.20;36.20;;;;;;5047997;28;20155;-51
2022/01/18 08:35:23;;;;;;;102.97;52.65;;;13.70;37.40;;;;;;5042503;28;20041;-59
2022/01/18 08:37:49;;;;;;;70.60;38.78;;;13.20;37.80;;;;;;5031610;28;20026;-57
2022/01/18 08:40:15;;;;;;;58.42;31.65;;;13.00;38.10;;;;;;5031958;28;20047;-55
2022/01/18 08:42:41;;;;;;;49.70;29.15;;;13.50;36.20;;;;;;5036704;28;20032;-64
2022/01/18 08:45:07;;;;;;;23.48;14.13;;;12.40;38.30;;;;;;5036433;28;20026;-54
2022/01/18 08:47:33;;;;;;;25.10;13.63;;;12.10;38.90;;;;;;5031397;28;20017;-62
2022/01/18 08:49:59;;;;;;;23.35;13.60;;;11.00;38.80;;;;;;5032598;28;20070;-63
2022/01/18 08:52:25;;;;;;;21.98;12.98;;;10.50;40.10;;;;;;5036350;28;20041;-53
2022/01/18 08:54:51;;;;;;;16.10;7.70;;;10.20;41.20;;;;;;5043419;28;20044;-60
2022/01/18 08:57:17;;;;;;;10.65;6.05;;;9.60;39.40;;;;;;5035222;28;20065;-49
2022/01/18 08:59:44;;;;;;;11.32;5.15;;;9.50;40.40;;;;;;5038035;28;20467;-56
2022/01/18 09:02:11;;;;;;;8.45;4.15;;;9.90;40.80;;;;;;5040622;28;20534;-48
2022/01/18 09:04:37;;;;;;;7.22;4.00;;;9.70;39.50;;;;;;5041044;28;20396;-48
2022/01/18 09:07:08;;;;;;;10.35;4.18;;;9.10;40.00;;;;;;5041521;28;20025;-58
2022/01/18 09:09:41;;;;;;;7.88;3.83;;;9.00;40.20;;;;;;5043873;28;20052;-61
2022/01/18 09:12:10;;;;;;;7.55;3.70;;;9.20;40.60;;;;;;5043944;28;20032;-54
2022/01/18 09:14:39;;;;;;;8.32;3.97;;;9.90;38.80;;;;;;5044451;28;20044;-55
2022/01/18 09:17:05;;;;;;;8.52;3.97;;;9.60;40.00;;;;;;5044067;28;20360;-52
2022/01/18 09:19:31;;;;;;;9.25;4.72;;;9.50;39.60;;;;;;5040805;28;20060;-57
2022/01/18 09:21:59;;;;;;;9.90;4.47;;;9.70;39.80;;;;;;5036134;28;20033;-60
2022/01/18 09:24:25;;;;;;;12.18;5.95;;;9.40;39.50;;;;;;5033679;28;20449;-61
2022/01/18 09:26:51;;;;;;;9.20;4.72;;;9.60;39.30;;;;;;5041973;28;20124;-49
2022/01/18 09:29:16;;;;;;;10.50;5.00;;;9.50;40.40;;;;;;5033329;28;20022;-56
2022/01/18 09:32:07;;;;;;;9.13;4.20;;;9.30;40.60;;;;;;5038014;28;20021;-57
2022/01/18 09:34:33;;;;;;;13.98;5.97;;;9.70;40.70;;;;;;5043922;28;20036;-56
2022/01/18 09:36:59;;;;;;;7.80;3.22;;;10.10;38.90;;;;;;5039642;28;20030;-59
2022/01/18 09:39:26;;;;;;;8.75;4.60;;;10.00;38.80;;;;;;5036589;28;20037;-52
2022/01/18 09:41:54;;;;;;;8.15;3.92;;;10.40;39.00;;;;;;5038451;28;20040;-61
2022/01/18 09:44:21;;;;;;;11.75;6.50;;;10.90;39.40;;;;;;5040938;28;20021;-58
2022/01/18 09:46:51;;;;;;;13.77;6.50;;;10.90;37.30;;;;;;5040247;28;20029;-55
2022/01/18 09:49:18;;;;;;;6.88;3.17;;;10.80;38.00;;;;;;5041940;28;20037;-55
2022/01/18 09:51:44;;;;;;;7.22;3.58;;;10.50;38.90;;;;;;5039391;28;20106;-50
2022/01/18 09:54:10;;;;;;;5.65;2.42;;;10.70;39.90;;;;;;5044543;28;20476;-50
2022/01/18 09:56:36;;;;;;;7.03;2.90;;;10.90;37.80;;;;;;5043507;28;20116;-49
2022/01/18 09:59:03;;;;;;;3.35;1.83;;;11.00;38.30;;;;;;5043955;28;20074;-52
2022/01/18 10:01:29;;;;;;;6.63;2.35;;;11.10;38.30;;;;;;5041406;28;20487;-53
2022/01/18 10:04:22;;;;;;;6.07;2.10;;;11.20;36.80;;;;;;5043560;28;20051;-52
2022/01/18 10:06:51;;;;;;;6.18;2.60;;;11.30;37.10;;;;;;5042707;28;20021;-55
2022/01/18 10:09:19;;;;;;;3.97;2.35;;;11.30;36.90;;;;;;5040179;28;20036;-49
2022/01/18 10:12:10;;;;;;;8.82;5.00;;;11.40;37.10;;;;;;5040983;28;20025;-50
2022/01/18 10:14:41;;;;;;;7.05;3.30;;;11.60;35.70;;;;;;5041820;28;20064;-59
2022/01/18 10:17:10;;;;;;;3.67;2.10;;;11.80;38.10;;;;;;5039786;28;20025;-55
2022/01/18 10:19:48;;;;;;;3.65;2.40;;;11.80;36.40;;;;;;5041046;28;20130;-51
2022/01/18 10:22:17;;;;;;;6.07;3.33;;;12.10;36.70;;;;;;5043164;28;20038;-51
2022/01/18 10:24:44;;;;;;;5.95;2.88;;;12.20;36.50;;;;;;5040014;28;20114;-56
2022/01/18 10:27:12;;;;;;;4.50;2.08;;;12.30;35.30;;;;;;5043420;28;20035;-60
2022/01/18 10:29:42;;;;;;;5.97;1.80;;;12.30;35.50;;;;;;5048331;28;20112;-53
2022/01/18 10:32:16;;;;;;;3.83;1.85;;;12.10;35.90;;;;;;5038253;28;20029;-58
2022/01/18 10:37:21;;;;;;;4.68;1.70;;;12.40;35.20;;;;;;5039764;28;20099;-50
2022/01/18 10:39:55;;;;;;;3.90;1.60;;;12.10;34.80;;;;;;5043317;28;20037;-53
2022/01/18 10:42:25;;;;;;;8.00;2.80;;;12.20;36.00;;;;;;5041619;28;20024;-49
2022/01/18 10:44:59;;;;;;;5.72;3.00;;;12.50;34.30;;;;;;5051706;28;20024;-51
2022/01/18 10:47:26;;;;;;;6.88;2.90;;;12.50;34.80;;;;;;5049482;28;20530;-54
2022/01/18 10:49:52;;;;;;;6.72;2.45;;;12.30;34.40;;;;;;5034477;28;20416;-56
2022/01/18 10:52:24;;;;;;;12.23;2.88;;;12.40;33.60;;;;;;5038384;28;20395;-60
2022/01/18 10:55:00;;;;;;;4.40;2.17;;;12.60;34.80;;;;;;5051165;28;20032;-50
2022/01/18 10:57:38;;;;;;;3.90;2.00;;;12.80;36.30;;;;;;5040961;28;20033;-54
2022/01/18 11:00:07;;;;;;;4.97;2.67;;;12.90;35.20;;;;;;5043788;28;20071;-51
2022/01/18 11:02:41;;;;;;;9.57;3.45;;;12.80;35.30;;;;;;5032184;28;20021;-57
2022/01/18 11:05:13;;;;;;;3.25;2.00;;;12.80;36.10;;;;;;5037273;28;20018;-56
2022/01/18 11:07:40;;;;;;;4.80;2.30;;;13.00;35.30;;;;;;5038734;28;20360;-58
2022/01/18 11:10:08;;;;;;;5.40;2.05;;;12.80;34.60;;;;;;5040555;28;20107;-59
2022/01/18 11:12:45;;;;;;;6.22;3.78;;;12.80;34.40;;;;;;5036113;28;20037;-49
2022/01/18 11:15:16;;;;;;;5.97;2.88;;;12.60;35.00;;;;;;5052117;28;20025;-58
2022/01/18 11:17:49;;;;;;;5.28;2.28;;;12.90;35.00;;;;;;5050435;28;20047;-43
2022/01/18 11:20:16;;;;;;;4.15;2.00;;;12.80;34.70;;;;;;5053234;28;20475;-47
2022/01/18 11:22:43;;;;;;;3.45;2.00;;;12.80;37.00;;;;;;5049861;28;20344;-53
2022/01/18 11:25:10;;;;;;;7.30;2.35;;;13.20;36.10;;;;;;5042185;28;20040;-54
2022/01/18 11:27:36;;;;;;;4.53;1.77;;;13.50;34.60;;;;;;5034783;28;20360;-49
2022/01/18 11:30:06;;;;;;;4.70;2.30;;;13.20;34.50;;;;;;5032135;28;20026;-55
2022/01/18 11:32:32;;;;;;;3.25;2.03;;;13.40;35.00;;;;;;5036406;28;20410;-57
2022/01/18 11:35:00;;;;;;;3.75;1.60;;;13.60;35.60;;;;;;5044045;28;20054;-57
2022/01/18 11:37:28;;;;;;;3.88;1.88;;;13.40;32.70;;;;;;5035139;28;20218;-59
2022/01/18 11:40:17;;;;;;;5.97;3.38;;;13.40;35.80;;;;;;5039337;28;20452;-60
2022/01/18 11:42:51;;;;;;;4.93;2.20;;;13.60;32.80;;;;;;5034033;28;20033;-60
2022/01/18 11:45:25;;;;;;;7.35;2.95;;;13.60;33.30;;;;;;5042015;28;20112;-59
2022/01/18 11:48:03;;;;;;;5.50;3.50;;;13.70;32.70;;;;;;5026588;28;20025;-59
2022/01/18 11:50:30;;;;;;;11.52;5.18;;;13.50;32.70;;;;;;5029117;28;20059;-59
2022/01/18 11:53:26;;;;;;;9.63;4.28;;;13.60;31.70;;;;;;5036941;28;20503;-59
2022/01/18 11:55:57;;;;;;;12.57;5.47;;;13.60;31.80;;;;;;5038468;28;20029;-60
2022/01/18 11:58:25;;;;;;;4.95;2.13;;;13.60;31.50;;;;;;5032428;28;20511;-59
2022/01/18 12:01:00;;;;;;;7.85;2.45;;;13.40;33.60;;;;;;5033102;28;20502;-59
2022/01/18 12:03:32;;;;;;;7.07;3.15;;;13.30;34.00;;;;;;5033470;28;20040;-60
2022/01/18 12:06:03;;;;;;;2.65;1.40;;;13.30;32.60;;;;;;5046887;28;20111;-59
2022/01/18 12:08:43;;;;;;;4.63;2.17;;;12.90;32.80;;;;;;5051017;28;20442;-59
2022/01/18 12:11:32;;;;;;;4.00;1.55;;;12.90;34.80;;;;;;5039454;28;20040;-59
2022/01/18 12:14:00;;;;;;;3.70;1.80;;;13.10;35.60;;;;;;5042826;28;20029;-59
2022/01/18 12:16:29;;;;;;;4.75;2.28;;;13.40;33.10;;;;;;5045973;28;20028;-59
2022/01/18 12:19:06;;;;;;;3.90;1.73;;;13.20;33.90;;;;;;5040618;28;20116;-59
2022/01/18 12:21:33;;;;;;;3.67;1.80;;;13.20;31.30;;;;;;5039101;28;20021;-60
2022/01/18 12:24:15;;;;;;;4.50;1.98;;;13.20;33.60;;;;;;5038415;28;20046;-59
2022/01/18 12:26:45;;;;;;;2.78;1.60;;;13.40;33.30;;;;;;5041837;28;20017;-60
2022/01/18 12:29:46;;;;;;;6.88;2.80;;;13.60;33.00;;;;;;5038648;28;20017;-60
2022/01/18 12:34:43;;;;;;;4.68;2.33;;;13.50;33.10;;;;;;5038325;28;20368;-59
2022/01/18 12:37:20;;;;;;;5.53;1.95;;;13.50;31.50;;;;;;5037003;28;20030;-59
2022/01/18 12:39:55;;;;;;;2.53;1.33;;;13.60;31.60;;;;;;5036531;28;20064;-59
2022/01/18 12:45:22;;;;;;;5.13;2.70;;;13.50;32.40;;;;;;5045115;28;20025;-60
2022/01/18 12:47:59;;;;;;;4.05;1.90;;;13.50;32.30;;;;;;5045624;28;20025;-59
2022/01/18 12:50:31;;;;;;;6.32;2.47;;;13.70;32.30;;;;;;5035244;28;20033;-59
2022/01/18 12:53:09;;;;;;;5.35;2.08;;;13.70;33.30;;;;;;5034629;28;20143;-59
2022/01/18 12:55:45;;;;;;;4.80;2.05;;;13.60;31.80;;;;;;5045234;28;20060;-59
2022/01/18 12:58:14;;;;;;;4.38;2.17;;;13.60;31.60;;;;;;5055108;28;20051;-60
2022/01/18 13:01:01;;;;;;;4.00;2.60;;;13.90;32.90;;;;;;5036412;28;20040;-59
2022/01/18 13:03:28;;;;;;;4.10;2.08;;;14.10;31.60;;;;;;5034302;28;20018;-60
2022/01/18 13:05:57;;;;;;;2.53;1.65;;;13.50;30.00;;;;;;5038222;28;20025;-59
2022/01/18 13:08:29;;;;;;;4.20;2.72;;;13.50;29.70;;;;;;5041716;28;20025;-59
2022/01/18 13:10:55;;;;;;;4.93;2.25;;;13.30;30.70;;;;;;5045988;28;20032;-58
2022/01/18 13:13:30;;;;;;;5.15;3.20;;;13.50;30.60;;;;;;5053549;28;20053;-59
2022/01/18 13:26:50;;;;;;;4.82;1.75;;;13.70;29.50;;;;;;5055026;28;20078;-59
2022/01/18 13:29:22;;;;;;;3.28;1.50;;;13.60;30.60;;;;;;5055412;28;20028;-59
2022/01/18 13:32:15;;;;;;;4.70;2.25;;;14.00;30.50;;;;;;5055581;28;20025;-59
2022/01/18 13:34:44;;;;;;;4.05;2.47;;;14.30;29.70;;;;;;5056259;28;20025;-59
2022/01/18 13:37:19;;;;;;;5.88;2.80;;;14.30;31.20;;;;;;5056039;28;20379;-59
2022/01/18 13:39:57;;;;;;;4.70;2.22;;;14.60;29.70;;;;;;5055521;28;20372;-59
2022/01/18 13:42:34;;;;;;;6.22;2.08;;;14.70;28.70;;;;;;5055911;28;20052;-59
2022/01/18 13:45:20;;;;;;;3.78;2.28;;;14.90;29.80;;;;;;5055761;28;20020;-59
2022/01/18 13:47:49;;;;;;;6.72;3.08;;;14.80;29.40;;;;;;5055736;28;20017;-59
2022/01/18 13:50:29;;;;;;;3.58;2.17;;;14.70;29.00;;;;;;5055615;28;20029;-59
2022/01/18 13:53:04;;;;;;;4.55;2.28;;;14.60;28.80;;;;;;5055338;28;20052;-59
2022/01/18 13:55:30;;;;;;;5.30;2.28;;;14.70;29.40;;;;;;5055248;28;20029;-59
2022/01/18 13:57:57;;;;;;;4.10;1.88;;;14.70;29.20;;;;;;5055460;28;20418;-58
2022/01/18 14:00:25;;;;;;;5.07;2.30;;;14.70;29.50;;;;;;5055515;28;20041;-59
2022/01/18 14:02:50;;;;;;;4.93;2.97;;;14.70;28.90;;;;;;5055324;28;20108;-59
2022/01/18 14:05:20;;;;;;;6.95;2.72;;;14.50;28.80;;;;;;5055887;28;20104;-60
2022/01/18 14:07:46;;;;;;;4.72;2.80;;;14.60;29.10;;;;;;5055419;28;20028;-60
2022/01/18 14:10:11;;;;;;;4.07;2.42;;;14.30;28.50;;;;;;5055088;28;20025;-60
2022/01/18 14:12:37;;;;;;;5.53;2.90;;;14.30;28.70;;;;;;5055338;28;20355;-60
2022/01/18 14:15:03;;;;;;;6.63;3.13;;;14.30;28.30;;;;;;5055367;28;20024;-60